sensor_id;sensor_type;location;lat;lon;timestamp;temperature;humidity
63875;DHT22;51595;24.180;-110.296;2023-07-13T03:10:04;30.70;99.90
63875;DHT22;51595;24.180;-110.296;2023-07-13T03:12:42;30.60;99.90
63875;DHT22;51595;24.180;-110.296;2023-07-13T03:15:09;30.90;99.90
63875;DHT22;51595;24.180;-110.296;2023-07-13T03:17:36;31.10;99.90
63875;DHT22;51595;24.180;-110.296;2023-07-13T03:20:02;31.20;99.90
63875;DHT22;51595;24.180;-110.296;2023-07-13T03:22:29;31.30;99.90
63875;DHT22;51595;24.180;-110.296;2023-07-13T03:24:56;31.30;99.90
63875;DHT22;51595;24.180;-110.296;2023-07-13T03:27:22;31.30;99.90
63875;DHT22;51595;24.180;-110.296;2023-07-13T03:29:49;31.30;99.90
63875;DHT22;51595;24.180;-110.296;2023-07-13T03:32:15;31.40;99.90
63875;DHT22;51595;24.180;-110.296;2023-07-13T03:34:42;31.40;99.90
63875;DHT22;51595;24.180;-110.296;2023-07-13T03:37:08;31.30;99.90
63875;DHT22;51595;24.180;-110.296;2023-07-13T03:39:35;31.20;99.90
63875;DHT22;51595;24.180;-110.296;2023-07-13T03:42:01;31.30;99.90
63875;DHT22;51595;24.180;-110.296;2023-07-13T03:44:28;31.40;99.90
63875;DHT22;51595;24.180;-110.296;2023-07-13T03:46:54;31.40;99.90
63875;DHT22;51595;24.180;-110.296;2023-07-13T03:49:22;31.30;99.90
63875;DHT22;51595;24.180;-110.296;2023-07-13T03:51:49;31.20;99.90
63875;DHT22;51595;24.180;-110.296;2023-07-13T03:54:18;31.00;99.90
63875;DHT22;51595;24.180;-110.296;2023-07-13T03:56:45;30.80;99.90
63875;DHT22;51595;24.180;-110.296;2023-07-13T03:59:11;30.70;99.90
63875;DHT22;51595;24.180;-110.296;2023-07-13T04:01:38;30.60;99.90
63875;DHT22;51595;24.180;-110.296;2023-07-13T04:04:05;30.50;99.90
63875;DHT22;51595;24.180;-110.296;2023-07-13T04:06:32;30.50;99.90
63875;DHT22;51595;24.180;-110.296;2023-07-13T04:09:00;30.50;99.90
63875;DHT22;51595;24.180;-110.296;2023-07-13T04:11:29;30.40;99.90
63875;DHT22;51595;24.180;-110.296;2023-07-13T04:13:58;30.40;99.90
63875;DHT22;51595;24.180;-110.296;2023-07-13T04:16:25;30.40;99.90
63875;DHT22;51595;24.180;-110.296;2023-07-13T04:18:53;30.40;99.90
63875;DHT22;51595;24.180;-110.296;2023-07-13T04:21:22;30.40;99.90
63875;DHT22;51595;24.180;-110.296;2023-07-13T04:23:48;30.30;99.90
63875;DHT22;51595;24.180;-110.296;2023-07-13T04:26:15;30.40;99.90
63875;DHT22;51595;24.180;-110.296;2023-07-13T04:28:41;30.30;99.90
63875;DHT22;51595;24.180;-110.296;2023-07-13T04:31:08;30.30;99.90
63875;DHT22;51595;24.180;-110.296;2023-07-13T04:33:34;30.20;99.90
63875;DHT22;51595;24.180;-110.296;2023-07-13T04:36:00;30.20;99.90
63875;DHT22;51595;24.180;-110.296;2023-07-13T04:38:32;30.20;99.90
63875;DHT22;51595;24.180;-110.296;2023-07-13T04:41:01;30.30;99.90
63875;DHT22;51595;24.180;-110.296;2023-07-13T04:43:29;30.40;99.90
63875;DHT22;51595;24.180;-110.296;2023-07-13T04:45:56;30.40;99.90
63875;DHT22;51595;24.180;-110.296;2023-07-13T04:48:23;30.30;99.90
63875;DHT22;51595;24.180;-110.296;2023-07-13T04:50:57;30.30;99.90
63875;DHT22;51595;24.180;-110.296;2023-07-13T04:53:26;30.20;99.90
63875;DHT22;51595;24.180;-110.296;2023-07-13T04:55:53;30.10;99.90
63875;DHT22;51595;24.180;-110.296;2023-07-13T04:58:20;30.00;99.90
63875;DHT22;51595;24.180;-110.296;2023-07-13T05:00:47;30.20;99.90
63875;DHT22;51595;24.180;-110.296;2023-07-13T05:03:14;30.20;99.90
63875;DHT22;51595;24.180;-110.296;2023-07-13T05:05:40;30.10;99.90
63875;DHT22;51595;24.180;-110.296;2023-07-13T05:08:07;30.10;99.90
63875;DHT22;51595;24.180;-110.296;2023-07-13T05:10:34;30.00;99.90
63875;DHT22;51595;24.180;-110.296;2023-07-13T05:13:01;30.10;99.90
63875;DHT22;51595;24.180;-110.296;2023-07-13T05:15:27;30.00;99.90
63875;DHT22;51595;24.180;-110.296;2023-07-13T05:17:54;30.00;99.90
63875;DHT22;51595;24.180;-110.296;2023-07-13T05:20:20;29.90;99.90
63875;DHT22;51595;24.180;-110.296;2023-07-13T05:22:47;29.90;99.90
63875;DHT22;51595;24.180;-110.296;2023-07-13T05:25:15;29.90;99.90
63875;DHT22;51595;24.180;-110.296;2023-07-13T05:27:42;29.90;99.90
63875;DHT22;51595;24.180;-110.296;2023-07-13T05:30:11;29.80;99.90
63875;DHT22;51595;24.180;-110.296;2023-07-13T05:32:38;29.90;99.90
63875;DHT22;51595;24.180;-110.296;2023-07-13T05:35:05;29.90;99.90
63875;DHT22;51595;24.180;-110.296;2023-07-13T05:37:31;29.90;99.90
63875;DHT22;51595;24.180;-110.296;2023-07-13T05:39:58;29.80;99.90
63875;DHT22;51595;24.180;-110.296;2023-07-13T05:42:24;29.90;99.90
63875;DHT22;51595;24.180;-110.296;2023-07-13T05:44:52;29.90;99.90
63875;DHT22;51595;24.180;-110.296;2023-07-13T05:47:19;29.90;99.90
63875;DHT22;51595;24.180;-110.296;2023-07-13T05:49:46;29.80;99.90
63875;DHT22;51595;24.180;-110.296;2023-07-13T05:52:12;29.60;99.90
63875;DHT22;51595;24.180;-110.296;2023-07-13T05:54:39;29.60;99.90
63875;DHT22;51595;24.180;-110.296;2023-07-13T05:57:05;29.60;99.90
63875;DHT22;51595;24.180;-110.296;2023-07-13T05:59:32;29.60;99.90
63875;DHT22;51595;24.180;-110.296;2023-07-13T06:01:58;29.70;99.90
63875;DHT22;51595;24.180;-110.296;2023-07-13T06:04:25;29.60;99.90
63875;DHT22;51595;24.180;-110.296;2023-07-13T06:06:51;29.50;99.90
63875;DHT22;51595;24.180;-110.296;2023-07-13T06:09:17;29.50;99.90
63875;DHT22;51595;24.180;-110.296;2023-07-13T06:11:44;29.50;99.90
63875;DHT22;51595;24.180;-110.296;2023-07-13T06:14:11;29.40;99.90
63875;DHT22;51595;24.180;-110.296;2023-07-13T06:16:39;29.30;99.90
63875;DHT22;51595;24.180;-110.296;2023-07-13T06:19:05;29.30;99.90
63875;DHT22;51595;24.180;-110.296;2023-07-13T06:21:33;29.30;99.90
63875;DHT22;51595;24.180;-110.296;2023-07-13T06:24:00;29.50;99.90
63875;DHT22;51595;24.180;-110.296;2023-07-13T06:26:26;29.40;99.90
63875;DHT22;51595;24.180;-110.296;2023-07-13T06:28:53;29.30;99.90
63875;DHT22;51595;24.180;-110.296;2023-07-13T06:31:20;29.20;99.90
63875;DHT22;51595;24.180;-110.296;2023-07-13T06:33:46;29.20;99.90
63875;DHT22;51595;24.180;-110.296;2023-07-13T06:36:13;29.30;99.90
63875;DHT22;51595;24.180;-110.296;2023-07-13T06:38:39;29.30;99.90
63875;DHT22;51595;24.180;-110.296;2023-07-13T06:41:07;29.20;99.90
63875;DHT22;51595;24.180;-110.296;2023-07-13T06:43:34;29.30;99.90
63875;DHT22;51595;24.180;-110.296;2023-07-13T06:46:03;29.40;99.90
63875;DHT22;51595;24.180;-110.296;2023-07-13T06:48:30;29.40;99.90
63875;DHT22;51595;24.180;-110.296;2023-07-13T06:50:57;29.40;99.90
63875;DHT22;51595;24.180;-110.296;2023-07-13T06:53:23;29.40;99.90
63875;DHT22;51595;24.180;-110.296;2023-07-13T06:55:50;29.40;99.90
63875;DHT22;51595;24.180;-110.296;2023-07-13T06:58:19;29.40;99.90
63875;DHT22;51595;24.180;-110.296;2023-07-13T07:00:49;29.40;99.90
63875;DHT22;51595;24.180;-110.296;2023-07-13T07:03:16;29.30;99.90
63875;DHT22;51595;24.180;-110.296;2023-07-13T07:05:42;29.30;99.90
63875;DHT22;51595;24.180;-110.296;2023-07-13T07:08:09;29.30;99.90
63875;DHT22;51595;24.180;-110.296;2023-07-13T07:10:36;29.30;99.90
63875;DHT22;51595;24.180;-110.296;2023-07-13T07:13:02;29.30;99.90
63875;DHT22;51595;24.180;-110.296;2023-07-13T07:15:29;29.10;99.90
63875;DHT22;51595;24.180;-110.296;2023-07-13T07:17:55;28.90;99.90
63875;DHT22;51595;24.180;-110.296;2023-07-13T07:20:22;28.80;99.90
63875;DHT22;51595;24.180;-110.296;2023-07-13T07:22:48;28.80;99.90
63875;DHT22;51595;24.180;-110.296;2023-07-13T07:25:16;28.80;99.90
63875;DHT22;51595;24.180;-110.296;2023-07-13T07:27:43;28.70;99.90
63875;DHT22;51595;24.180;-110.296;2023-07-13T07:30:10;28.70;99.90
63875;DHT22;51595;24.180;-110.296;2023-07-13T07:32:37;28.80;99.90
63875;DHT22;51595;24.180;-110.296;2023-07-13T07:35:04;28.80;99.90
63875;DHT22;51595;24.180;-110.296;2023-07-13T07:37:30;28.80;99.90
63875;DHT22;51595;24.180;-110.296;2023-07-13T07:39:57;28.70;99.90
63875;DHT22;51595;24.180;-110.296;2023-07-13T07:42:24;28.60;99.90
63875;DHT22;51595;24.180;-110.296;2023-07-13T07:44:50;28.50;99.90
63875;DHT22;51595;24.180;-110.296;2023-07-13T07:47:16;28.50;99.90
63875;DHT22;51595;24.180;-110.296;2023-07-13T07:49:43;28.60;99.90
63875;DHT22;51595;24.180;-110.296;2023-07-13T07:52:09;28.70;99.90
63875;DHT22;51595;24.180;-110.296;2023-07-13T07:54:36;28.60;99.90
63875;DHT22;51595;24.180;-110.296;2023-07-13T07:57:02;28.50;99.90
63875;DHT22;51595;24.180;-110.296;2023-07-13T07:59:29;28.40;99.90
63875;DHT22;51595;24.180;-110.296;2023-07-13T08:01:57;28.30;99.90
63875;DHT22;51595;24.180;-110.296;2023-07-13T08:04:23;28.30;99.90
63875;DHT22;51595;24.180;-110.296;2023-07-13T08:06:50;28.20;99.90
63875;DHT22;51595;24.180;-110.296;2023-07-13T08:09:16;28.30;99.90
63875;DHT22;51595;24.180;-110.296;2023-07-13T08:11:43;28.30;99.90
63875;DHT22;51595;24.180;-110.296;2023-07-13T08:14:09;28.30;99.90
63875;DHT22;51595;24.180;-110.296;2023-07-13T08:16:35;28.30;99.90
63875;DHT22;51595;24.180;-110.296;2023-07-13T08:19:02;28.30;99.90
63875;DHT22;51595;24.180;-110.296;2023-07-13T08:21:30;28.40;99.90
63875;DHT22;51595;24.180;-110.296;2023-07-13T08:23:58;28.40;99.90
63875;DHT22;51595;24.180;-110.296;2023-07-13T08:26:24;28.40;99.90
63875;DHT22;51595;24.180;-110.296;2023-07-13T08:28:51;28.30;99.90
63875;DHT22;51595;24.180;-110.296;2023-07-13T08:31:17;28.30;99.90
63875;DHT22;51595;24.180;-110.296;2023-07-13T08:33:44;28.30;99.90
63875;DHT22;51595;24.180;-110.296;2023-07-13T08:36:11;28.40;99.90
63875;DHT22;51595;24.180;-110.296;2023-07-13T08:38:37;28.30;99.90
63875;DHT22;51595;24.180;-110.296;2023-07-13T08:41:12;28.40;99.90
63875;DHT22;51595;24.180;-110.296;2023-07-13T08:43:44;28.30;99.90
63875;DHT22;51595;24.180;-110.296;2023-07-13T08:49:01;28.20;99.90
63875;DHT22;51595;24.180;-110.296;2023-07-13T08:51:41;28.10;99.90
63875;DHT22;51595;24.180;-110.296;2023-07-13T08:56:45;28.10;99.90
63875;DHT22;51595;24.180;-110.296;2023-07-13T08:59:18;28.10;99.90
63875;DHT22;51595;24.180;-110.296;2023-07-13T09:04:50;28.00;99.90
63875;DHT22;51595;24.180;-110.296;2023-07-13T09:07:20;28.00;99.90
63875;DHT22;51595;24.180;-110.296;2023-07-13T09:15:00;28.10;99.90
63875;DHT22;51595;24.180;-110.296;2023-07-13T09:17:39;28.10;99.90
63875;DHT22;51595;24.180;-110.296;2023-07-13T09:20:21;28.20;99.90
63875;DHT22;51595;24.180;-110.296;2023-07-13T09:22:51;28.10;99.90
63875;DHT22;51595;24.180;-110.296;2023-07-13T09:25:48;28.00;99.90
63875;DHT22;51595;24.180;-110.296;2023-07-13T09:28:27;28.00;99.90
63875;DHT22;51595;24.180;-110.296;2023-07-13T09:33:29;27.90;99.90
63875;DHT22;51595;24.180;-110.296;2023-07-13T09:35:57;27.80;99.90
63875;DHT22;51595;24.180;-110.296;2023-07-13T09:38:26;27.90;99.90
63875;DHT22;51595;24.180;-110.296;2023-07-13T09:44:18;27.90;99.90
63875;DHT22;51595;24.180;-110.296;2023-07-13T09:46:54;28.00;99.90
63875;DHT22;51595;24.180;-110.296;2023-07-13T09:49:35;28.10;99.90
63875;DHT22;51595;24.180;-110.296;2023-07-13T09:52:12;28.00;99.90
63875;DHT22;51595;24.180;-110.296;2023-07-13T09:54:43;28.00;99.90
63875;DHT22;51595;24.180;-110.296;2023-07-13T09:57:16;27.90;99.90
63875;DHT22;51595;24.180;-110.296;2023-07-13T09:59:50;27.80;99.90
63875;DHT22;51595;24.180;-110.296;2023-07-13T10:02:30;27.80;99.90
63875;DHT22;51595;24.180;-110.296;2023-07-13T10:05:14;27.80;99.90
63875;DHT22;51595;24.180;-110.296;2023-07-13T10:07:45;27.70;99.90
63875;DHT22;51595;24.180;-110.296;2023-07-13T10:10:19;27.70;99.90
63875;DHT22;51595;24.180;-110.296;2023-07-13T10:12:49;27.80;99.90
63875;DHT22;51595;24.180;-110.296;2023-07-13T10:15:21;27.80;99.90
63875;DHT22;51595;24.180;-110.296;2023-07-13T10:17:49;27.70;99.90
63875;DHT22;51595;24.180;-110.296;2023-07-13T10:20:16;27.80;99.90
63875;DHT22;51595;24.180;-110.296;2023-07-13T10:25:23;27.90;99.90
63875;DHT22;51595;24.180;-110.296;2023-07-13T10:27:54;28.00;99.90
63875;DHT22;51595;24.180;-110.296;2023-07-13T10:30:24;27.90;99.90
63875;DHT22;51595;24.180;-110.296;2023-07-13T10:33:00;28.00;99.90
63875;DHT22;51595;24.180;-110.296;2023-07-13T10:35:29;27.90;99.90
63875;DHT22;51595;24.180;-110.296;2023-07-13T10:38:07;27.90;99.90
63875;DHT22;51595;24.180;-110.296;2023-07-13T10:40:46;27.90;99.90
63875;DHT22;51595;24.180;-110.296;2023-07-13T10:43:27;28.00;99.90
63875;DHT22;51595;24.180;-110.296;2023-07-13T10:45:57;27.90;99.90
63875;DHT22;51595;24.180;-110.296;2023-07-13T10:48:25;27.90;99.90
63875;DHT22;51595;24.180;-110.296;2023-07-13T10:50:54;27.90;99.90
63875;DHT22;51595;24.180;-110.296;2023-07-13T10:53:30;27.80;99.90
63875;DHT22;51595;24.180;-110.296;2023-07-13T10:56:04;27.80;99.90
63875;DHT22;51595;24.180;-110.296;2023-07-13T11:01:08;27.80;99.90
63875;DHT22;51595;24.180;-110.296;2023-07-13T11:03:37;27.90;99.90
63875;DHT22;51595;24.180;-110.296;2023-07-13T11:06:39;27.70;99.90
63875;DHT22;51595;24.180;-110.296;2023-07-13T11:09:25;27.80;99.90
63875;DHT22;51595;24.180;-110.296;2023-07-13T11:12:08;27.80;99.90
63875;DHT22;51595;24.180;-110.296;2023-07-13T11:14:41;27.90;99.90
63875;DHT22;51595;24.180;-110.296;2023-07-13T11:20:23;27.90;99.90
63875;DHT22;51595;24.180;-110.296;2023-07-13T11:25:39;27.90;99.90
63875;DHT22;51595;24.180;-110.296;2023-07-13T11:36:02;28.00;99.90
63875;DHT22;51595;24.180;-110.296;2023-07-13T11:38:35;27.90;99.90
63875;DHT22;51595;24.180;-110.296;2023-07-13T11:41:21;28.00;99.90
63875;DHT22;51595;24.180;-110.296;2023-07-13T11:43:54;28.00;99.90
63875;DHT22;51595;24.180;-110.296;2023-07-13T11:46:23;28.00;99.90
63875;DHT22;51595;24.180;-110.296;2023-07-13T11:48:50;27.90;99.90
63875;DHT22;51595;24.180;-110.296;2023-07-13T11:51:25;27.90;99.90
63875;DHT22;51595;24.180;-110.296;2023-07-13T11:53:55;27.90;99.90
63875;DHT22;51595;24.180;-110.296;2023-07-13T11:56:25;27.90;99.90
63875;DHT22;51595;24.180;-110.296;2023-07-13T11:58:54;27.90;99.90
63875;DHT22;51595;24.180;-110.296;2023-07-13T12:01:26;27.90;99.90
63875;DHT22;51595;24.180;-110.296;2023-07-13T12:04:01;27.90;99.90
63875;DHT22;51595;24.180;-110.296;2023-07-13T12:06:35;27.90;99.90
63875;DHT22;51595;24.180;-110.296;2023-07-13T12:09:15;28.00;99.90
63875;DHT22;51595;24.180;-110.296;2023-07-13T12:11:46;28.00;99.90
63875;DHT22;51595;24.180;-110.296;2023-07-13T12:14:15;28.00;99.90
63875;DHT22;51595;24.180;-110.296;2023-07-13T12:16:42;27.90;99.90
63875;DHT22;51595;24.180;-110.296;2023-07-13T12:19:26;27.80;99.90
63875;DHT22;51595;24.180;-110.296;2023-07-13T12:21:57;27.70;99.90
63875;DHT22;51595;24.180;-110.296;2023-07-13T12:24:29;27.60;99.90
63875;DHT22;51595;24.180;-110.296;2023-07-13T12:27:00;27.70;99.90
63875;DHT22;51595;24.180;-110.296;2023-07-13T12:29:27;27.60;99.90
63875;DHT22;51595;24.180;-110.296;2023-07-13T12:31:54;27.60;99.90
63875;DHT22;51595;24.180;-110.296;2023-07-13T12:34:24;27.50;99.90
63875;DHT22;51595;24.180;-110.296;2023-07-13T12:37:02;27.50;99.90
63875;DHT22;51595;24.180;-110.296;2023-07-13T12:39:37;27.40;99.90
63875;DHT22;51595;24.180;-110.296;2023-07-13T12:42:27;27.40;99.90
63875;DHT22;51595;24.180;-110.296;2023-07-13T12:45:41;27.40;99.90
63875;DHT22;51595;24.180;-110.296;2023-07-13T12:48:03;27.50;99.90
63875;DHT22;51595;24.180;-110.296;2023-07-13T12:50:40;27.60;99.90
63875;DHT22;51595;24.180;-110.296;2023-07-13T12:53:19;27.50;99.90
63875;DHT22;51595;24.180;-110.296;2023-07-13T12:55:53;27.50;99.90
63875;DHT22;51595;24.180;-110.296;2023-07-13T12:58:27;27.50;99.90
63875;DHT22;51595;24.180;-110.296;2023-07-13T13:00:57;27.60;99.90
63875;DHT22;51595;24.180;-110.296;2023-07-13T13:03:35;27.70;99.90
63875;DHT22;51595;24.180;-110.296;2023-07-13T13:06:06;27.70;99.90
63875;DHT22;51595;24.180;-110.296;2023-07-13T13:08:34;27.70;99.90
63875;DHT22;51595;24.180;-110.296;2023-07-13T13:11:01;27.80;99.90
63875;DHT22;51595;24.180;-110.296;2023-07-13T13:13:28;27.90;99.90
63875;DHT22;51595;24.180;-110.296;2023-07-13T13:15:54;28.10;99.90
63875;DHT22;51595;24.180;-110.296;2023-07-13T13:18:23;28.20;99.90
63875;DHT22;51595;24.180;-110.296;2023-07-13T13:20:50;28.20;99.90
63875;DHT22;51595;24.180;-110.296;2023-07-13T13:23:19;28.40;99.90
63875;DHT22;51595;24.180;-110.296;2023-07-13T13:25:49;28.40;99.90
63875;DHT22;51595;24.180;-110.296;2023-07-13T13:28:18;28.60;99.90
63875;DHT22;51595;24.180;-110.296;2023-07-13T13:30:47;28.70;99.90
63875;DHT22;51595;24.180;-110.296;2023-07-13T13:33:16;28.80;99.90
63875;DHT22;51595;24.180;-110.296;2023-07-13T13:35:43;29.00;99.90
63875;DHT22;51595;24.180;-110.296;2023-07-13T13:38:19;29.00;99.90
63875;DHT22;51595;24.180;-110.296;2023-07-13T13:40:46;28.90;99.90
63875;DHT22;51595;24.180;-110.296;2023-07-13T13:43:24;29.00;99.90
63875;DHT22;51595;24.180;-110.296;2023-07-13T13:45:58;29.00;99.90
63875;DHT22;51595;24.180;-110.296;2023-07-13T13:48:36;29.00;99.90
63875;DHT22;51595;24.180;-110.296;2023-07-13T13:51:13;29.10;99.90
63875;DHT22;51595;24.180;-110.296;2023-07-13T13:53:40;29.20;99.90
63875;DHT22;51595;24.180;-110.296;2023-07-13T13:56:07;29.20;99.90
63875;DHT22;51595;24.180;-110.296;2023-07-13T13:58:34;29.20;99.90
63875;DHT22;51595;24.180;-110.296;2023-07-13T14:01:00;29.30;99.90
63875;DHT22;51595;24.180;-110.296;2023-07-13T14:03:27;29.40;99.90
63875;DHT22;51595;24.180;-110.296;2023-07-13T14:05:54;29.50;99.90
63875;DHT22;51595;24.180;-110.296;2023-07-13T14:08:23;29.70;99.90
63875;DHT22;51595;24.180;-110.296;2023-07-13T14:10:52;29.90;99.90
63875;DHT22;51595;24.180;-110.296;2023-07-13T14:13:26;30.10;99.90
63875;DHT22;51595;24.180;-110.296;2023-07-13T14:15:54;30.10;99.90
63875;DHT22;51595;24.180;-110.296;2023-07-13T14:18:21;30.20;99.90
63875;DHT22;51595;24.180;-110.296;2023-07-13T14:20:48;30.30;99.90
63875;DHT22;51595;24.180;-110.296;2023-07-13T14:23:16;30.20;99.90
63875;DHT22;51595;24.180;-110.296;2023-07-13T14:25:46;30.40;99.90
63875;DHT22;51595;24.180;-110.296;2023-07-13T14:28:24;30.10;99.90
63875;DHT22;51595;24.180;-110.296;2023-07-13T14:30:52;30.00;99.90
63875;DHT22;51595;24.180;-110.296;2023-07-13T14:33:22;30.00;99.90
63875;DHT22;51595;24.180;-110.296;2023-07-13T14:35:50;30.20;99.90
63875;DHT22;51595;24.180;-110.296;2023-07-13T14:38:19;30.30;99.90
63875;DHT22;51595;24.180;-110.296;2023-07-13T14:40:46;30.40;99.90
63875;DHT22;51595;24.180;-110.296;2023-07-13T14:43:16;30.70;99.90
63875;DHT22;51595;24.180;-110.296;2023-07-13T14:45:49;30.80;99.90
63875;DHT22;51595;24.180;-110.296;2023-07-13T14:48:18;31.10;99.90
63875;DHT22;51595;24.180;-110.296;2023-07-13T14:50:46;31.00;99.90
63875;DHT22;51595;24.180;-110.296;2023-07-13T14:53:13;31.00;99.90
63875;DHT22;51595;24.180;-110.296;2023-07-13T14:55:40;31.10;99.90
63875;DHT22;51595;24.180;-110.296;2023-07-13T14:58:08;31.30;99.90
63875;DHT22;51595;24.180;-110.296;2023-07-13T15:00:38;31.30;99.90
63875;DHT22;51595;24.180;-110.296;2023-07-13T15:03:21;31.30;99.90
63875;DHT22;51595;24.180;-110.296;2023-07-13T15:05:49;31.80;99.90
63875;DHT22;51595;24.180;-110.296;2023-07-13T15:08:16;31.90;99.90
63875;DHT22;51595;24.180;-110.296;2023-07-13T15:10:43;31.90;99.90
63875;DHT22;51595;24.180;-110.296;2023-07-13T15:15:44;31.80;99.90
63875;DHT22;51595;24.180;-110.296;2023-07-13T15:18:12;32.00;99.90
63875;DHT22;51595;24.180;-110.296;2023-07-13T15:20:39;32.10;99.90
63875;DHT22;51595;24.180;-110.296;2023-07-13T15:23:06;32.40;99.90
63875;DHT22;51595;24.180;-110.296;2023-07-13T15:25:33;32.90;99.90
63875;DHT22;51595;24.180;-110.296;2023-07-13T15:28:01;32.70;99.90
63875;DHT22;51595;24.180;-110.296;2023-07-13T15:30:30;32.40;99.90
63875;DHT22;51595;24.180;-110.296;2023-07-13T15:33:00;32.30;99.90
63875;DHT22;51595;24.180;-110.296;2023-07-13T15:35:28;32.30;99.90
63875;DHT22;51595;24.180;-110.296;2023-07-13T15:37:55;32.30;99.90
63875;DHT22;51595;24.180;-110.296;2023-07-13T15:40:23;32.50;99.90
63875;DHT22;51595;24.180;-110.296;2023-07-13T15:42:50;32.30;99.90
63875;DHT22;51595;24.180;-110.296;2023-07-13T15:45:23;32.50;99.90
63875;DHT22;51595;24.180;-110.296;2023-07-13T15:47:55;32.70;99.90
63875;DHT22;51595;24.180;-110.296;2023-07-13T15:50:23;32.80;99.90
63875;DHT22;51595;24.180;-110.296;2023-07-13T15:52:55;33.10;99.90
63875;DHT22;51595;24.180;-110.296;2023-07-13T15:55:23;33.00;99.90
63875;DHT22;51595;24.180;-110.296;2023-07-13T15:57:51;33.00;99.90
63875;DHT22;51595;24.180;-110.296;2023-07-13T16:00:23;33.50;99.90
63875;DHT22;51595;24.180;-110.296;2023-07-13T16:02:50;33.30;99.90
63875;DHT22;51595;24.180;-110.296;2023-07-13T16:05:18;33.40;99.90
63875;DHT22;51595;24.180;-110.296;2023-07-13T16:07:48;33.40;99.90
63875;DHT22;51595;24.180;-110.296;2023-07-13T16:12:53;33.50;99.90
63875;DHT22;51595;24.180;-110.296;2023-07-13T16:15:21;34.00;99.90
63875;DHT22;51595;24.180;-110.296;2023-07-13T16:17:48;34.20;99.90
63875;DHT22;51595;24.180;-110.296;2023-07-13T16:20:18;34.30;99.90
63875;DHT22;51595;24.180;-110.296;2023-07-13T16:22:55;34.50;99.90
63875;DHT22;51595;24.180;-110.296;2023-07-13T16:25:27;34.10;99.90
63875;DHT22;51595;24.180;-110.296;2023-07-13T16:27:57;34.10;99.90
63875;DHT22;51595;24.180;-110.296;2023-07-13T16:30:27;34.40;99.90
63875;DHT22;51595;24.180;-110.296;2023-07-13T16:32:59;34.20;99.90
63875;DHT22;51595;24.180;-110.296;2023-07-13T16:35:39;34.60;99.90
63875;DHT22;51595;24.180;-110.296;2023-07-13T16:38:21;35.00;99.90
63875;DHT22;51595;24.180;-110.296;2023-07-13T16:40:51;35.20;99.90
63875;DHT22;51595;24.180;-110.296;2023-07-13T16:43:19;35.60;99.90
63875;DHT22;51595;24.180;-110.296;2023-07-13T16:45:47;35.50;99.90
63875;DHT22;51595;24.180;-110.296;2023-07-13T16:48:18;35.60;99.90
63875;DHT22;51595;24.180;-110.296;2023-07-13T16:50:53;35.50;99.90
63875;DHT22;51595;24.180;-110.296;2023-07-13T16:53:24;35.60;99.90
63875;DHT22;51595;24.180;-110.296;2023-07-13T16:55:51;36.20;99.90
63875;DHT22;51595;24.180;-110.296;2023-07-13T16:58:23;36.30;99.90
63875;DHT22;51595;24.180;-110.296;2023-07-13T17:00:51;35.90;99.90
63875;DHT22;51595;24.180;-110.296;2023-07-13T17:03:19;36.00;99.90
63875;DHT22;51595;24.180;-110.296;2023-07-13T17:05:47;36.50;99.90
63875;DHT22;51595;24.180;-110.296;2023-07-13T17:08:21;36.70;99.90
63875;DHT22;51595;24.180;-110.296;2023-07-13T17:10:55;36.90;99.90
63875;DHT22;51595;24.180;-110.296;2023-07-13T17:13:28;36.80;99.90
63875;DHT22;51595;24.180;-110.296;2023-07-13T17:15:56;36.50;99.90
63875;DHT22;51595;24.180;-110.296;2023-07-13T17:18:27;36.90;99.90
63875;DHT22;51595;24.180;-110.296;2023-07-13T17:21:06;37.30;99.90
63875;DHT22;51595;24.180;-110.296;2023-07-13T17:23:33;37.60;99.90
63875;DHT22;51595;24.180;-110.296;2023-07-13T17:26:00;38.20;99.90
63875;DHT22;51595;24.180;-110.296;2023-07-13T17:28:27;38.00;99.70
63875;DHT22;51595;24.180;-110.296;2023-07-13T17:30:56;38.30;99.80
63875;DHT22;51595;24.180;-110.296;2023-07-13T17:33:34;38.70;99.40
63875;DHT22;51595;24.180;-110.296;2023-07-13T17:36:19;38.40;99.60
63875;DHT22;51595;24.180;-110.296;2023-07-13T17:38:48;38.30;99.20
63875;DHT22;51595;24.180;-110.296;2023-07-13T17:41:23;38.40;99.10
63875;DHT22;51595;24.180;-110.296;2023-07-13T17:43:50;38.60;98.80
63875;DHT22;51595;24.180;-110.296;2023-07-13T17:46:27;38.90;98.40
63875;DHT22;51595;24.180;-110.296;2023-07-13T17:48:54;39.10;97.40
63875;DHT22;51595;24.180;-110.296;2023-07-13T17:51:21;39.40;96.90
63875;DHT22;51595;24.180;-110.296;2023-07-13T17:53:54;39.60;96.10
63875;DHT22;51595;24.180;-110.296;2023-07-13T17:56:22;39.70;95.90
63875;DHT22;51595;24.180;-110.296;2023-07-13T17:58:52;39.90;95.60
63875;DHT22;51595;24.180;-110.296;2023-07-13T18:01:21;39.70;95.00
63875;DHT22;51595;24.180;-110.296;2023-07-13T18:03:52;39.70;94.60
63875;DHT22;51595;24.180;-110.296;2023-07-13T18:08:57;39.70;93.90
63875;DHT22;51595;24.180;-110.296;2023-07-13T18:11:25;39.50;93.90
63875;DHT22;51595;24.180;-110.296;2023-07-13T18:13:52;39.30;94.10
63875;DHT22;51595;24.180;-110.296;2023-07-13T18:16:23;39.70;94.20
63875;DHT22;51595;24.180;-110.296;2023-07-13T18:18:54;40.10;92.60
63875;DHT22;51595;24.180;-110.296;2023-07-13T18:21:21;40.30;92.50
63875;DHT22;51595;24.180;-110.296;2023-07-13T18:23:48;40.60;91.50
63875;DHT22;51595;24.180;-110.296;2023-07-13T18:26:17;40.40;91.90
63875;DHT22;51595;24.180;-110.296;2023-07-13T18:28:45;40.40;91.60
63875;DHT22;51595;24.180;-110.296;2023-07-13T18:31:21;40.50;91.40
63875;DHT22;51595;24.180;-110.296;2023-07-13T18:33:50;40.60;90.60
63875;DHT22;51595;24.180;-110.296;2023-07-13T18:36:19;41.00;90.50
63875;DHT22;51595;24.180;-110.296;2023-07-13T18:38:46;41.00;89.90
63875;DHT22;51595;24.180;-110.296;2023-07-13T18:41:15;41.50;88.30
63875;DHT22;51595;24.180;-110.296;2023-07-13T18:43:45;41.40;88.30
63875;DHT22;51595;24.180;-110.296;2023-07-13T18:46:29;41.50;87.40
63875;DHT22;51595;24.180;-110.296;2023-07-13T18:48:59;41.70;86.50
63875;DHT22;51595;24.180;-110.296;2023-07-13T18:51:26;40.50;88.70
63875;DHT22;51595;24.180;-110.296;2023-07-13T18:53:53;39.50;90.50
63875;DHT22;51595;24.180;-110.296;2023-07-13T18:56:20;38.60;91.80
63875;DHT22;51595;24.180;-110.296;2023-07-13T18:58:46;38.10;92.50